Terminal Aerodrome Forecast
Issued by NWS

Home | Current Version | Previous Version | Text Only | Print | Product List | Glossary On
Versions: 1 2 3 4 5 6 7 8 9 10 11 12 13 14 15 16 17 18
000
FTUS43 KICT 180600 AAA
TAFCNU
TAF AMD
KCNU 180633Z 1807/1906 12008KT P6SM VCTS BKN030CB
     FM181200 08007KT 2SM BR OVC004
     FM181500 07007KT 6SM BR OVC012
     FM181800 09008KT P6SM FEW025=

USA.gov is the U.S. government's official web portal to all federal, state and local government web resources and services.